createdAt,value
2023-03-30T00:01:35.534Z,12.41
2023-03-30T00:04:03.607Z,12.14
2023-03-30T00:06:31.184Z,12.28
2023-03-30T00:08:59.436Z,12.41
2023-03-30T00:11:27.822Z,12.48
2023-03-30T00:13:55.239Z,12.53
2023-03-30T00:16:23.057Z,12.31
2023-03-30T00:18:50.946Z,12.53
2023-03-30T00:21:20.710Z,12.63
2023-03-30T00:23:48.895Z,12.60
2023-03-30T00:26:17.498Z,12.45
2023-03-30T00:28:45.292Z,12.57
2023-03-30T00:31:13.522Z,12.69
2023-03-30T00:33:46.645Z,12.55
2023-03-30T00:36:16.228Z,12.77
2023-03-30T00:38:45.665Z,12.76
2023-03-30T00:41:13.598Z,12.74
2023-03-30T00:44:01.620Z,12.72
2023-03-30T00:46:31.251Z,12.67
2023-03-30T00:49:04.140Z,12.65
2023-03-30T00:51:37.177Z,12.27
2023-03-30T00:54:09.600Z,12.08
2023-03-30T00:56:37.622Z,11.96
2023-03-30T00:59:05.724Z,12.34
2023-03-30T01:01:38.629Z,12.38
2023-03-30T01:04:08.645Z,12.45
2023-03-30T01:06:36.892Z,12.47
2023-03-30T01:09:05.834Z,12.48
2023-03-30T01:11:33.528Z,12.26
2023-03-30T01:14:03.605Z,12.38
2023-03-30T01:16:40.192Z,12.47
2023-03-30T01:19:32.593Z,12.33
2023-03-30T01:22:12.867Z,12.24
2023-03-30T01:25:15.529Z,12.42
2023-03-30T01:28:01.826Z,12.11
2023-03-30T01:30:57.651Z,12.25
2023-03-30T01:34:03.754Z,12.38
2023-03-30T01:36:31.533Z,12.43
2023-03-30T01:39:11.532Z,12.35
2023-03-30T01:42:01.522Z,12.29
2023-03-30T01:44:34.981Z,12.24
2023-03-30T01:47:16.525Z,12.01
2023-03-30T01:49:48.025Z,12.23
2023-03-30T01:52:24.711Z,12.23
2023-03-30T01:54:58.494Z,12.22
2023-03-30T01:57:42.462Z,12.11
2023-03-30T02:00:14.941Z,12.26
2023-03-30T02:02:46.451Z,12.25
2023-03-30T02:05:18.003Z,11.75
2023-03-30T02:07:56.078Z,11.21
2023-03-30T02:10:27.096Z,11.72
2023-03-30T02:12:57.629Z,11.60
2023-03-30T02:15:28.675Z,11.80
2023-03-30T02:17:56.933Z,12.01
2023-03-30T02:20:24.693Z,11.96
2023-03-30T02:22:52.140Z,11.92
2023-03-30T02:25:19.699Z,11.96
2023-03-30T02:27:48.074Z,12.07
2023-03-30T02:30:15.961Z,12.03
2023-03-30T02:32:46.492Z,12.16
2023-03-30T02:35:34.982Z,12.08
2023-03-30T02:38:44.165Z,12.15
2023-03-30T02:41:37.889Z,12.06
2023-03-30T02:44:14.775Z,11.75
2023-03-30T02:46:58.140Z,11.81
2023-03-30T02:49:43.098Z,11.96
2023-03-30T02:52:33.775Z,11.60
2023-03-30T02:55:10.732Z,11.97
2023-03-30T02:57:55.477Z,12.10
2023-03-30T03:00:32.428Z,11.90
2023-03-30T03:03:08.580Z,11.99
2023-03-30T03:05:37.135Z,12.17
2023-03-30T03:08:06.096Z,12.11
2023-03-30T03:10:36.461Z,11.73
2023-03-30T03:13:04.053Z,11.92
2023-03-30T03:15:32.229Z,12.00
2023-03-30T03:18:00.978Z,12.03
2023-03-30T03:20:30.666Z,11.71
2023-03-30T03:22:58.632Z,12.10
2023-03-30T03:25:26.280Z,12.10
2023-03-30T03:27:54.100Z,12.25
2023-03-30T03:30:21.878Z,12.11
2023-03-30T03:32:50.944Z,12.19
2023-03-30T03:35:18.639Z,11.97
2023-03-30T03:37:46.455Z,12.01
2023-03-30T03:40:14.769Z,12.08
2023-03-30T03:42:42.548Z,11.89
2023-03-30T03:45:11.370Z,12.14
2023-03-30T03:47:39.669Z,11.92
2023-03-30T03:50:09.905Z,12.05
2023-03-30T03:52:37.736Z,10.73
2023-03-30T03:55:05.624Z,11.59
2023-03-30T03:57:33.144Z,10.71
2023-03-30T04:00:00.807Z,9.86
2023-03-30T04:02:28.487Z,10.77
2023-03-30T04:04:57.633Z,10.44
2023-03-30T04:07:25.610Z,10.94
2023-03-30T04:09:53.086Z,11.18
2023-03-30T04:12:20.921Z,11.03
2023-03-30T04:14:49.864Z,10.87
2023-03-30T04:17:17.350Z,11.10
2023-03-30T04:19:46.297Z,11.06
2023-03-30T04:22:14.636Z,11.15
2023-03-30T04:24:44.739Z,10.94
2023-03-30T04:27:16.989Z,11.41
2023-03-30T04:29:45.008Z,11.34
2023-03-30T04:32:12.862Z,11.03
2023-03-30T04:34:42.722Z,11.40
2023-03-30T04:37:10.980Z,11.39
2023-03-30T04:39:39.418Z,11.51
2023-03-30T04:42:07.505Z,10.74
2023-03-30T04:44:35.576Z,10.93
2023-03-30T04:47:03.672Z,11.28
2023-03-30T04:49:31.979Z,10.95
2023-03-30T04:52:00.204Z,11.30
2023-03-30T04:54:28.121Z,10.86
2023-03-30T04:56:59.409Z,10.55
2023-03-30T04:59:27.006Z,11.12
2023-03-30T05:01:55.267Z,10.63
2023-03-30T05:04:23.112Z,11.14
2023-03-30T05:06:51.057Z,11.23
2023-03-30T05:09:21.576Z,11.37
2023-03-30T05:11:50.409Z,11.31
2023-03-30T05:14:18.036Z,11.26
2023-03-30T05:16:46.087Z,11.13
2023-03-30T05:19:14.419Z,11.34
2023-03-30T05:21:42.361Z,10.59
2023-03-30T05:24:12.829Z,11.29
2023-03-30T05:26:41.522Z,10.54
2023-03-30T05:29:10.113Z,10.82
2023-03-30T05:31:37.908Z,10.45
2023-03-30T05:34:06.682Z,9.34
2023-03-30T05:36:35.481Z,9.32
2023-03-30T05:39:05.170Z,10.16
2023-03-30T05:41:34.526Z,10.24
2023-03-30T05:44:01.958Z,9.90
2023-03-30T05:46:29.753Z,9.07
2023-03-30T05:48:57.676Z,10.48
2023-03-30T05:51:25.732Z,10.70
2023-03-30T05:53:53.822Z,10.24
2023-03-30T05:56:23.620Z,10.51
2023-03-30T05:58:51.715Z,11.22
2023-03-30T06:01:20.892Z,10.69
2023-03-30T06:03:49.185Z,11.43
2023-03-30T06:06:17.037Z,11.61
2023-03-30T06:08:46.562Z,11.72
2023-03-30T06:11:14.866Z,11.76
2023-03-30T06:13:43.072Z,11.66
2023-03-30T06:16:10.864Z,11.96
2023-03-30T06:18:39.002Z,11.36
2023-03-30T06:21:08.375Z,11.19
2023-03-30T06:23:37.461Z,11.28
2023-03-30T06:26:07.811Z,10.79
2023-03-30T06:28:36.010Z,10.68
2023-03-30T06:31:10.899Z,11.50
2023-03-30T06:33:41.561Z,11.51
2023-03-30T06:36:13.612Z,10.88
2023-03-30T06:38:43.639Z,10.70
2023-03-30T06:41:12.710Z,10.91
2023-03-30T06:43:41.761Z,10.59
2023-03-30T06:46:12.470Z,9.04
2023-03-30T06:48:42.760Z,8.92
2023-03-30T06:51:14.530Z,9.36
2023-03-30T06:53:42.114Z,9.49
2023-03-30T06:56:09.793Z,10.10
2023-03-30T06:58:39.076Z,10.32
2023-03-30T07:01:14.140Z,10.28
2023-03-30T07:03:42.543Z,9.64
2023-03-30T07:06:10.944Z,10.09
2023-03-30T07:08:38.742Z,10.95
2023-03-30T07:11:07.250Z,10.44
2023-03-30T07:13:35.212Z,10.48
2023-03-30T07:16:03.383Z,10.80
2023-03-30T07:18:31.918Z,10.79
2023-03-30T07:20:59.526Z,11.26
2023-03-30T07:23:27.249Z,11.00
2023-03-30T07:25:55.031Z,11.38
2023-03-30T07:28:22.890Z,11.11
2023-03-30T07:30:50.808Z,10.99
2023-03-30T07:33:19.322Z,11.48
2023-03-30T07:35:48.018Z,11.17
2023-03-30T07:38:16.066Z,11.21
2023-03-30T07:40:44.096Z,10.62
2023-03-30T07:43:11.805Z,11.42
2023-03-30T07:45:39.450Z,11.19
2023-03-30T07:48:07.769Z,11.01
2023-03-30T07:50:35.620Z,11.34
2023-03-30T07:53:03.395Z,11.09
2023-03-30T07:55:31.274Z,11.62
2023-03-30T07:57:59.562Z,11.81
2023-03-30T08:00:26.968Z,12.10
2023-03-30T08:02:58.269Z,12.49
2023-03-30T08:05:25.961Z,11.88
2023-03-30T08:07:53.851Z,11.97
2023-03-30T08:10:22.441Z,12.76
2023-03-30T08:12:49.857Z,11.77
2023-03-30T08:15:17.237Z,12.68
2023-03-30T08:17:45.165Z,13.00
2023-03-30T08:20:12.976Z,13.08
2023-03-30T08:22:40.376Z,12.08
2023-03-30T08:25:09.290Z,13.15
2023-03-30T08:27:36.757Z,11.99
2023-03-30T08:30:05.472Z,12.57
2023-03-30T08:32:33.316Z,12.91
2023-03-30T08:35:00.909Z,13.13
2023-03-30T08:37:28.704Z,13.01
2023-03-30T08:39:56.394Z,13.28
2023-03-30T08:42:53.028Z,13.09
2023-03-30T08:45:20.735Z,13.47
2023-03-30T08:47:50.126Z,14.19
2023-03-30T08:50:21.311Z,14.30
2023-03-30T08:52:50.788Z,14.28
2023-03-30T08:55:33.094Z,14.71
2023-03-30T08:58:19.107Z,14.52
2023-03-30T09:01:10.561Z,13.98
2023-03-30T09:03:45.120Z,13.44
2023-03-30T09:06:31.222Z,14.14
2023-03-30T09:08:58.939Z,13.46
2023-03-30T09:11:34.821Z,14.42
2023-03-30T09:14:06.593Z,13.81
2023-03-30T09:16:51.815Z,14.42
2023-03-30T09:19:25.156Z,14.68
2023-03-30T09:21:53.901Z,15.02
2023-03-30T09:24:26.185Z,14.66
2023-03-30T09:27:08.237Z,15.52
2023-03-30T09:29:47.348Z,15.72
2023-03-30T09:32:29.925Z,15.65
2023-03-30T09:35:05.199Z,14.86
2023-03-30T09:37:32.720Z,15.10
2023-03-30T09:40:09.405Z,14.95
2023-03-30T09:42:52.756Z,14.95
2023-03-30T09:45:23.613Z,14.42
2023-03-30T09:47:51.065Z,14.94
2023-03-30T09:50:24.840Z,14.19
2023-03-30T09:53:07.335Z,14.02
2023-03-30T09:55:36.715Z,13.86
2023-03-30T09:58:17.433Z,13.94
2023-03-30T10:00:45.801Z,13.32
2023-03-30T10:03:21.049Z,13.27
2023-03-30T10:06:02.106Z,14.44
2023-03-30T10:08:30.021Z,14.95
2023-03-30T10:10:58.439Z,14.78
2023-03-30T10:13:34.989Z,15.24
2023-03-30T10:16:08.670Z,15.35
2023-03-30T10:18:45.573Z,15.07
2023-03-30T10:21:13.122Z,15.38
2023-03-30T10:23:42.744Z,15.57
2023-03-30T10:26:19.833Z,15.88
2023-03-30T10:28:55.860Z,15.28
2023-03-30T10:31:27.131Z,15.81
2023-03-30T10:33:59.894Z,15.19
2023-03-30T10:36:33.938Z,15.82
2023-03-30T10:39:14.390Z,15.77
2023-03-30T10:41:42.373Z,15.41
2023-03-30T10:44:31.047Z,14.62
2023-03-30T10:47:30.262Z,15.86
2023-03-30T10:50:07.041Z,15.84
2023-03-30T10:52:58.955Z,16.33
2023-03-30T10:55:31.731Z,15.40
2023-03-30T10:58:27.253Z,16.29
2023-03-30T11:01:16.520Z,16.98
2023-03-30T11:03:47.741Z,17.40
2023-03-30T11:06:26.160Z,15.78
2023-03-30T11:08:55.666Z,15.75
2023-03-30T11:11:32.570Z,16.19
2023-03-30T11:14:02.251Z,16.82
2023-03-30T11:16:38.941Z,16.38
2023-03-30T11:19:16.337Z,16.62
2023-03-30T11:21:56.715Z,16.81
2023-03-30T11:24:24.936Z,16.15
2023-03-30T11:26:55.653Z,15.79
2023-03-30T11:29:49.070Z,15.53
2023-03-30T11:32:47.561Z,15.65
2023-03-30T11:35:24.538Z,16.52
2023-03-30T11:37:58.007Z,16.28
2023-03-30T11:40:27.911Z,17.07
2023-03-30T11:42:55.813Z,16.72
2023-03-30T11:45:42.548Z,16.48
2023-03-30T11:48:19.333Z,17.25
2023-03-30T11:51:13.739Z,17.09
2023-03-30T11:54:13.906Z,16.76
2023-03-30T11:56:48.818Z,15.88
2023-03-30T11:59:22.413Z,16.13
2023-03-30T12:02:17.422Z,15.69
2023-03-30T12:04:48.976Z,16.83
2023-03-30T12:07:44.518Z,17.13
2023-03-30T12:10:19.270Z,16.09
2023-03-30T12:12:49.430Z,14.88
2023-03-30T12:15:23.383Z,15.56
2023-03-30T12:18:13.828Z,14.61
2023-03-30T12:20:46.028Z,14.85
2023-03-30T12:23:34.277Z,14.97
2023-03-30T12:26:31.329Z,15.59
2023-03-30T12:29:56.552Z,16.04
2023-03-30T12:31:59.977Z,15.46
2023-03-30T12:34:29.906Z,15.58
2023-03-30T12:37:28.563Z,16.17
2023-03-30T12:40:00.418Z,15.68
2023-03-30T12:42:39.727Z,15.89
2023-03-30T12:45:22.844Z,15.22
2023-03-30T12:48:14.718Z,15.90
2023-03-30T12:50:45.478Z,15.54
2023-03-30T12:53:34.577Z,15.25
2023-03-30T12:56:08.861Z,16.26
2023-03-30T12:58:39.237Z,15.92
2023-03-30T13:01:35.894Z,15.99
2023-03-30T13:04:09.375Z,16.07
2023-03-30T13:06:40.568Z,15.82
2023-03-30T13:09:08.095Z,15.91
2023-03-30T13:12:04.833Z,15.38
2023-03-30T13:14:34.152Z,15.59
2023-03-30T13:17:01.597Z,15.88
2023-03-30T13:19:49.239Z,15.75
2023-03-30T13:22:16.796Z,16.08
2023-03-30T13:25:03.859Z,15.62
2023-03-30T13:27:36.532Z,15.45
2023-03-30T13:30:07.780Z,15.66
2023-03-30T13:33:15.666Z,16.06
2023-03-30T13:35:52.346Z,16.02
2023-03-30T13:38:29.141Z,16.44
2023-03-30T13:41:08.329Z,16.75
2023-03-30T13:44:01.176Z,15.76
2023-03-30T13:47:00.486Z,15.94
2023-03-30T13:49:36.938Z,16.87
2023-03-30T13:52:06.607Z,16.21
2023-03-30T13:54:34.954Z,16.33
2023-03-30T13:57:15.022Z,16.76
2023-03-30T13:59:46.366Z,16.58
2023-03-30T14:02:16.399Z,17.19
2023-03-30T14:04:49.140Z,17.48
2023-03-30T14:07:21.041Z,17.23
2023-03-30T14:10:09.416Z,17.21
2023-03-30T14:12:39.471Z,16.95
2023-03-30T14:15:27.903Z,16.74
2023-03-30T14:17:58.319Z,17.62
2023-03-30T14:20:39.142Z,17.16
2023-03-30T14:23:06.992Z,16.90
2023-03-30T14:25:40.684Z,17.17
2023-03-30T14:28:16.999Z,17.22
2023-03-30T14:30:52.759Z,16.56
2023-03-30T14:33:20.587Z,16.60
2023-03-30T14:35:50.446Z,16.87
2023-03-30T14:38:24.216Z,17.05
2023-03-30T14:40:52.962Z,16.62
2023-03-30T14:43:25.986Z,16.30
2023-03-30T14:45:54.681Z,16.50
2023-03-30T14:48:33.494Z,16.49
2023-03-30T14:51:02.603Z,16.87
2023-03-30T14:53:30.989Z,17.19
2023-03-30T14:55:59.703Z,16.77
2023-03-30T14:58:31.223Z,17.51
2023-03-30T15:01:06.156Z,16.19
2023-03-30T15:03:37.258Z,17.19
2023-03-30T15:06:06.960Z,17.06
2023-03-30T15:08:39.491Z,16.72
2023-03-30T15:11:09.538Z,16.31
2023-03-30T15:13:42.894Z,17.19
2023-03-30T15:16:15.740Z,17.06
2023-03-30T15:18:43.616Z,17.42
2023-03-30T15:21:12.732Z,17.03
2023-03-30T15:23:42.500Z,17.44
2023-03-30T15:26:11.458Z,17.47
2023-03-30T15:28:51.193Z,17.73
2023-03-30T15:31:19.816Z,17.65
2023-03-30T15:33:51.957Z,17.68
2023-03-30T15:36:36.459Z,17.50
2023-03-30T15:39:18.571Z,17.31
2023-03-30T15:41:47.563Z,17.59
2023-03-30T15:44:19.824Z,17.59
2023-03-30T15:46:52.816Z,17.87
2023-03-30T15:49:24.551Z,18.04
2023-03-30T15:51:55.435Z,18.11
2023-03-30T15:54:27.179Z,18.19
2023-03-30T15:56:59.728Z,18.11
2023-03-30T16:00:04.893Z,17.42
2023-03-30T16:02:46.670Z,17.38
2023-03-30T16:05:20.465Z,16.95
2023-03-30T16:07:48.511Z,17.42
2023-03-30T16:10:27.243Z,17.57
2023-03-30T16:12:56.164Z,17.56
2023-03-30T16:15:26.081Z,17.65
2023-03-30T16:17:53.836Z,17.67
2023-03-30T16:20:26.737Z,17.53
2023-03-30T16:22:54.487Z,17.37
2023-03-30T16:25:33.980Z,16.90
2023-03-30T16:28:15.125Z,16.87
2023-03-30T16:30:45.892Z,16.47
2023-03-30T16:33:13.460Z,16.89
2023-03-30T16:35:41.161Z,17.02
2023-03-30T16:38:13.704Z,16.45
2023-03-30T16:40:43.211Z,16.24
2023-03-30T16:43:11.642Z,16.27
2023-03-30T16:45:39.297Z,16.63
2023-03-30T16:48:06.842Z,16.83
2023-03-30T16:50:54.024Z,16.84
2023-03-30T16:53:21.492Z,16.51
2023-03-30T16:55:49.497Z,16.61
2023-03-30T16:58:17.261Z,16.57
2023-03-30T17:00:47.403Z,16.49
2023-03-30T17:03:15.658Z,16.51
2023-03-30T17:05:48.260Z,16.16
2023-03-30T17:08:21.928Z,16.24
2023-03-30T17:10:50.614Z,16.16
2023-03-30T17:13:18.805Z,15.89
2023-03-30T17:15:46.571Z,15.64
2023-03-30T17:18:16.433Z,16.14
2023-03-30T17:20:48.276Z,16.21
2023-03-30T17:23:19.040Z,16.38
2023-03-30T17:25:49.047Z,15.98
2023-03-30T17:28:23.089Z,15.68
2023-03-30T17:30:52.904Z,15.20
2023-03-30T17:33:20.741Z,15.87
2023-03-30T17:35:57.632Z,15.80
2023-03-30T17:38:25.598Z,15.57
2023-03-30T17:40:53.000Z,15.51
2023-03-30T17:43:20.763Z,15.92
2023-03-30T17:45:48.777Z,15.90
2023-03-30T17:48:21.641Z,14.95
2023-03-30T17:50:50.672Z,15.89
2023-03-30T17:53:20.201Z,15.54
2023-03-30T17:55:50.022Z,15.87
2023-03-30T17:58:25.154Z,16.13
2023-03-30T18:00:53.869Z,16.17
2023-03-30T18:03:22.984Z,16.09
2023-03-30T18:05:50.838Z,16.07
2023-03-30T18:08:22.370Z,16.42
2023-03-30T18:10:58.181Z,16.32
2023-03-30T18:13:27.065Z,16.12
2023-03-30T18:15:55.960Z,16.42
2023-03-30T18:18:26.323Z,16.50
2023-03-30T18:20:55.728Z,16.35
2023-03-30T18:23:23.921Z,16.24
2023-03-30T18:25:51.723Z,16.40
2023-03-30T18:28:21.504Z,16.48
2023-03-30T18:30:49.572Z,16.45
2023-03-30T18:33:17.069Z,16.39
2023-03-30T18:35:46.374Z,16.33
2023-03-30T18:38:16.872Z,16.03
2023-03-30T18:40:57.924Z,16.32
2023-03-30T18:43:26.651Z,16.38
2023-03-30T18:45:58.524Z,16.19
2023-03-30T18:48:27.844Z,16.37
2023-03-30T18:50:55.685Z,16.21
2023-03-30T18:53:28.415Z,16.34
2023-03-30T18:55:58.635Z,16.54
2023-03-30T18:58:31.298Z,16.26
2023-03-30T19:00:59.664Z,16.43
2023-03-30T19:03:28.437Z,16.25
2023-03-30T19:05:56.039Z,16.47
2023-03-30T19:08:24.996Z,16.36
2023-03-30T19:10:55.450Z,15.39
2023-03-30T19:13:24.069Z,15.78
2023-03-30T19:15:52.644Z,16.12
2023-03-30T19:18:20.486Z,16.15
2023-03-30T19:20:50.064Z,16.07
2023-03-30T19:23:19.093Z,16.30
2023-03-30T19:25:46.578Z,16.18
2023-03-30T19:28:15.296Z,16.34
2023-03-30T19:30:43.651Z,16.46
2023-03-30T19:33:16.266Z,16.27
2023-03-30T19:35:45.131Z,16.06
2023-03-30T19:38:13.315Z,16.06
2023-03-30T19:40:41.342Z,16.22
2023-03-30T19:43:09.788Z,16.19
2023-03-30T19:45:37.419Z,16.07
2023-03-30T19:48:05.213Z,16.10
2023-03-30T19:50:33.001Z,16.29
2023-03-30T19:53:00.839Z,16.03
2023-03-30T19:55:28.494Z,16.25
2023-03-30T19:57:56.208Z,15.96
2023-03-30T20:00:23.836Z,16.00
2023-03-30T20:02:53.991Z,15.88
2023-03-30T20:05:23.828Z,15.71
2023-03-30T20:07:51.769Z,15.95
2023-03-30T20:10:22.469Z,15.97
2023-03-30T20:12:51.276Z,16.12
2023-03-30T20:15:20.243Z,16.16
2023-03-30T20:17:48.110Z,16.06
2023-03-30T20:20:22.655Z,16.08
2023-03-30T20:22:53.429Z,16.14
2023-03-30T20:25:21.718Z,16.04
2023-03-30T20:27:49.451Z,15.58
2023-03-30T20:30:17.428Z,15.96
2023-03-30T20:32:48.427Z,15.82
2023-03-30T20:35:25.676Z,15.77
2023-03-30T20:37:53.234Z,15.81
2023-03-30T20:40:21.131Z,15.52
2023-03-30T20:42:48.909Z,15.53
2023-03-30T20:45:17.696Z,15.59
2023-03-30T20:47:50.060Z,15.61
2023-03-30T20:50:18.090Z,15.60
2023-03-30T20:52:45.529Z,15.67
2023-03-30T20:55:13.136Z,15.77
2023-03-30T20:57:40.822Z,15.77
2023-03-30T21:00:09.472Z,15.69
2023-03-30T21:02:37.078Z,15.87
2023-03-30T21:05:05.072Z,15.92
2023-03-30T21:07:33.793Z,16.03
2023-03-30T21:10:01.213Z,15.95
2023-03-30T21:12:29.002Z,16.15
2023-03-30T21:14:56.571Z,16.15
2023-03-30T21:17:24.011Z,16.13
2023-03-30T21:19:51.724Z,16.06
2023-03-30T21:22:19.181Z,15.86
2023-03-30T21:24:46.614Z,15.92
2023-03-30T21:27:14.454Z,15.84
2023-03-30T21:29:41.916Z,15.85
2023-03-30T21:32:09.335Z,15.84
2023-03-30T21:34:37.025Z,15.92
2023-03-30T21:37:04.469Z,15.95
2023-03-30T21:39:31.960Z,15.99
2023-03-30T21:41:59.674Z,16.05
2023-03-30T21:44:27.183Z,16.15
2023-03-30T21:46:54.684Z,16.09
2023-03-30T21:49:22.583Z,15.70
2023-03-30T21:51:50.340Z,15.28
2023-03-30T21:54:19.308Z,15.34
2023-03-30T21:56:47.198Z,14.78
2023-03-30T21:59:14.613Z,14.92
2023-03-30T22:01:42.327Z,15.02
2023-03-30T22:04:10.596Z,14.93
2023-03-30T22:06:38.164Z,14.90
2023-03-30T22:09:06.012Z,14.71
2023-03-30T22:11:33.707Z,14.60
2023-03-30T22:14:01.288Z,14.90
2023-03-30T22:16:33.402Z,14.93
2023-03-30T22:19:01.898Z,15.03
2023-03-30T22:21:33.923Z,14.97
2023-03-30T22:24:02.908Z,15.06
2023-03-30T22:26:30.425Z,15.31
2023-03-30T22:28:57.982Z,15.04
2023-03-30T22:31:26.674Z,15.15
2023-03-30T22:33:55.021Z,15.53
2023-03-30T22:36:25.381Z,15.68
2023-03-30T22:38:53.055Z,15.78
2023-03-30T22:41:23.845Z,15.88
2023-03-30T22:43:52.801Z,15.78
2023-03-30T22:46:21.392Z,15.80
2023-03-30T22:48:57.814Z,15.67
2023-03-30T22:51:28.623Z,15.76
2023-03-30T22:54:00.313Z,15.94
2023-03-30T22:56:29.591Z,15.93
2023-03-30T22:58:57.485Z,15.82
2023-03-30T23:01:25.020Z,15.95
2023-03-30T23:03:53.486Z,16.08
2023-03-30T23:06:21.502Z,16.01
2023-03-30T23:08:49.210Z,15.97
2023-03-30T23:11:17.090Z,15.99
2023-03-30T23:13:44.637Z,16.06
2023-03-30T23:16:12.040Z,16.00
2023-03-30T23:18:39.851Z,15.81
2023-03-30T23:21:08.318Z,15.84
2023-03-30T23:23:36.447Z,15.67
2023-03-30T23:26:08.760Z,15.39
2023-03-30T23:28:38.609Z,15.51
2023-03-30T23:31:12.329Z,15.39
2023-03-30T23:33:43.331Z,15.33
2023-03-30T23:36:16.960Z,15.57
2023-03-30T23:38:45.434Z,15.61
2023-03-30T23:41:14.988Z,15.76
2023-03-30T23:43:42.870Z,15.71
2023-03-30T23:46:10.723Z,15.67
2023-03-30T23:48:39.210Z,15.77
2023-03-30T23:51:07.023Z,15.74
2023-03-30T23:53:34.554Z,15.83
2023-03-30T23:56:06.400Z,15.80
2023-03-30T23:58:34.200Z,15.72
